sensor_id;sensor_type;location;lat;lon;timestamp;temperature;humidity
21353;DHT22;10834;52.268;6.770;2022-11-15T00:00:50;8.60;99.90
21353;DHT22;10834;52.268;6.770;2022-11-15T00:03:36;8.60;99.90
21353;DHT22;10834;52.268;6.770;2022-11-15T00:06:22;8.60;99.90
21353;DHT22;10834;52.268;6.770;2022-11-15T00:09:08;8.60;99.90
21353;DHT22;10834;52.268;6.770;2022-11-15T00:11:54;8.60;99.90
21353;DHT22;10834;52.268;6.770;2022-11-15T00:14:40;8.60;99.90
21353;DHT22;10834;52.268;6.770;2022-11-15T00:17:26;8.60;99.90
21353;DHT22;10834;52.268;6.770;2022-11-15T00:20:12;8.60;99.90
21353;DHT22;10834;52.268;6.770;2022-11-15T00:22:59;8.60;99.90
21353;DHT22;10834;52.268;6.770;2022-11-15T00:25:45;8.60;99.90
21353;DHT22;10834;52.268;6.770;2022-11-15T00:28:31;8.50;99.90
21353;DHT22;10834;52.268;6.770;2022-11-15T00:31:17;8.60;99.90
21353;DHT22;10834;52.268;6.770;2022-11-15T00:34:03;8.60;99.90
21353;DHT22;10834;52.268;6.770;2022-11-15T00:36:49;8.60;99.90
21353;DHT22;10834;52.268;6.770;2022-11-15T00:39:35;8.60;99.90
21353;DHT22;10834;52.268;6.770;2022-11-15T00:42:21;8.60;99.90
21353;DHT22;10834;52.268;6.770;2022-11-15T00:45:08;8.60;99.90
21353;DHT22;10834;52.268;6.770;2022-11-15T00:47:54;8.60;99.90
21353;DHT22;10834;52.268;6.770;2022-11-15T00:50:40;8.60;99.90
21353;DHT22;10834;52.268;6.770;2022-11-15T00:53:26;8.60;99.90
21353;DHT22;10834;52.268;6.770;2022-11-15T00:56:13;8.60;99.90
21353;DHT22;10834;52.268;6.770;2022-11-15T00:58:59;8.60;99.90
21353;DHT22;10834;52.268;6.770;2022-11-15T01:01:45;8.60;99.90
21353;DHT22;10834;52.268;6.770;2022-11-15T01:04:31;8.60;99.90
21353;DHT22;10834;52.268;6.770;2022-11-15T01:07:17;8.60;99.90
21353;DHT22;10834;52.268;6.770;2022-11-15T01:10:04;8.60;99.90
21353;DHT22;10834;52.268;6.770;2022-11-15T01:12:50;8.70;99.90
21353;DHT22;10834;52.268;6.770;2022-11-15T01:15:39;8.70;99.90
21353;DHT22;10834;52.268;6.770;2022-11-15T01:18:26;8.70;99.90
21353;DHT22;10834;52.268;6.770;2022-11-15T01:21:17;8.70;99.90
21353;DHT22;10834;52.268;6.770;2022-11-15T01:24:03;8.70;99.90
21353;DHT22;10834;52.268;6.770;2022-11-15T01:26:49;8.70;99.90
21353;DHT22;10834;52.268;6.770;2022-11-15T01:29:36;8.80;99.90
21353;DHT22;10834;52.268;6.770;2022-11-15T01:32:22;8.80;99.90
21353;DHT22;10834;52.268;6.770;2022-11-15T01:35:08;8.90;99.90
21353;DHT22;10834;52.268;6.770;2022-11-15T01:37:54;8.90;99.90
21353;DHT22;10834;52.268;6.770;2022-11-15T01:40:40;8.90;99.90
21353;DHT22;10834;52.268;6.770;2022-11-15T01:49:15;9.00;99.90
21353;DHT22;10834;52.268;6.770;2022-11-15T01:52:04;9.00;99.90
21353;DHT22;10834;52.268;6.770;2022-11-15T01:55:11;9.00;99.90
21353;DHT22;10834;52.268;6.770;2022-11-15T01:58:00;9.00;99.90
21353;DHT22;10834;52.268;6.770;2022-11-15T02:00:48;9.10;99.90
21353;DHT22;10834;52.268;6.770;2022-11-15T02:03:52;9.10;99.90
21353;DHT22;10834;52.268;6.770;2022-11-15T02:06:42;9.10;99.90
21353;DHT22;10834;52.268;6.770;2022-11-15T02:09:29;9.10;99.90
21353;DHT22;10834;52.268;6.770;2022-11-15T02:12:19;9.10;99.90
21353;DHT22;10834;52.268;6.770;2022-11-15T02:15:07;9.20;99.90
21353;DHT22;10834;52.268;6.770;2022-11-15T02:18:04;9.20;99.90
21353;DHT22;10834;52.268;6.770;2022-11-15T02:20:58;9.30;99.90
21353;DHT22;10834;52.268;6.770;2022-11-15T02:36:02;9.40;99.90
21353;DHT22;10834;52.268;6.770;2022-11-15T02:39:19;9.40;99.90
21353;DHT22;10834;52.268;6.770;2022-11-15T02:42:15;9.50;99.90
21353;DHT22;10834;52.268;6.770;2022-11-15T02:45:26;9.40;99.90
21353;DHT22;10834;52.268;6.770;2022-11-15T02:48:14;9.50;99.90
21353;DHT22;10834;52.268;6.770;2022-11-15T02:51:01;9.50;99.90
21353;DHT22;10834;52.268;6.770;2022-11-15T02:53:48;9.50;99.90
21353;DHT22;10834;52.268;6.770;2022-11-15T02:56:34;9.60;99.90
21353;DHT22;10834;52.268;6.770;2022-11-15T03:02:47;9.60;99.90
21353;DHT22;10834;52.268;6.770;2022-11-15T03:05:59;9.60;99.90
21353;DHT22;10834;52.268;6.770;2022-11-15T03:12:26;9.70;99.90
21353;DHT22;10834;52.268;6.770;2022-11-15T03:18:45;9.80;99.90
21353;DHT22;10834;52.268;6.770;2022-11-15T03:21:34;9.90;99.90
21353;DHT22;10834;52.268;6.770;2022-11-15T03:24:23;9.90;99.90
21353;DHT22;10834;52.268;6.770;2022-11-15T03:27:14;9.90;99.90
21353;DHT22;10834;52.268;6.770;2022-11-15T03:30:05;10.00;99.90
21353;DHT22;10834;52.268;6.770;2022-11-15T03:32:55;10.00;99.90
21353;DHT22;10834;52.268;6.770;2022-11-15T03:35:44;10.00;99.90
21353;DHT22;10834;52.268;6.770;2022-11-15T03:38:32;10.10;99.90
21353;DHT22;10834;52.268;6.770;2022-11-15T03:41:27;10.10;99.90
21353;DHT22;10834;52.268;6.770;2022-11-15T03:47:47;10.10;99.90
21353;DHT22;10834;52.268;6.770;2022-11-15T03:50:35;10.10;99.90
21353;DHT22;10834;52.268;6.770;2022-11-15T03:53:21;10.20;99.90
21353;DHT22;10834;52.268;6.770;2022-11-15T03:56:07;10.20;99.90
21353;DHT22;10834;52.268;6.770;2022-11-15T03:58:53;10.20;99.90
21353;DHT22;10834;52.268;6.770;2022-11-15T04:01:39;10.20;99.90
21353;DHT22;10834;52.268;6.770;2022-11-15T04:04:25;10.20;99.90
21353;DHT22;10834;52.268;6.770;2022-11-15T04:07:11;10.30;99.90
21353;DHT22;10834;52.268;6.770;2022-11-15T04:09:58;10.30;99.90
21353;DHT22;10834;52.268;6.770;2022-11-15T04:12:49;10.30;99.90
21353;DHT22;10834;52.268;6.770;2022-11-15T04:15:36;10.40;99.90
21353;DHT22;10834;52.268;6.770;2022-11-15T04:18:22;10.40;99.90
21353;DHT22;10834;52.268;6.770;2022-11-15T04:21:08;10.40;99.90
21353;DHT22;10834;52.268;6.770;2022-11-15T04:24:13;10.50;99.90
21353;DHT22;10834;52.268;6.770;2022-11-15T04:26:59;10.50;99.90
21353;DHT22;10834;52.268;6.770;2022-11-15T04:29:45;10.50;99.90
21353;DHT22;10834;52.268;6.770;2022-11-15T04:32:31;10.60;99.90
21353;DHT22;10834;52.268;6.770;2022-11-15T04:35:18;10.60;99.90
21353;DHT22;10834;52.268;6.770;2022-11-15T04:38:05;10.60;99.90
21353;DHT22;10834;52.268;6.770;2022-11-15T04:40:51;10.60;99.90
21353;DHT22;10834;52.268;6.770;2022-11-15T04:43:37;10.60;99.90
21353;DHT22;10834;52.268;6.770;2022-11-15T04:46:24;10.70;99.90
21353;DHT22;10834;52.268;6.770;2022-11-15T04:49:10;10.70;99.90
21353;DHT22;10834;52.268;6.770;2022-11-15T04:51:56;10.70;99.90
21353;DHT22;10834;52.268;6.770;2022-11-15T04:54:42;10.80;99.90
21353;DHT22;10834;52.268;6.770;2022-11-15T04:57:28;10.80;99.90
21353;DHT22;10834;52.268;6.770;2022-11-15T05:00:16;10.80;99.90
21353;DHT22;10834;52.268;6.770;2022-11-15T05:03:03;10.90;99.90
21353;DHT22;10834;52.268;6.770;2022-11-15T05:06:07;10.90;99.90
21353;DHT22;10834;52.268;6.770;2022-11-15T05:08:53;10.90;99.90
21353;DHT22;10834;52.268;6.770;2022-11-15T05:11:40;11.00;99.90
21353;DHT22;10834;52.268;6.770;2022-11-15T05:14:26;11.00;99.90
21353;DHT22;10834;52.268;6.770;2022-11-15T05:17:12;11.00;99.90
21353;DHT22;10834;52.268;6.770;2022-11-15T05:19:58;11.00;99.90
21353;DHT22;10834;52.268;6.770;2022-11-15T05:22:44;11.10;99.90
21353;DHT22;10834;52.268;6.770;2022-11-15T05:25:30;11.10;99.90
21353;DHT22;10834;52.268;6.770;2022-11-15T05:28:17;11.10;99.90
21353;DHT22;10834;52.268;6.770;2022-11-15T05:31:11;11.10;99.90
21353;DHT22;10834;52.268;6.770;2022-11-15T05:33:58;11.20;99.90
21353;DHT22;10834;52.268;6.770;2022-11-15T05:36:44;11.20;99.90
21353;DHT22;10834;52.268;6.770;2022-11-15T05:39:31;11.20;99.90
21353;DHT22;10834;52.268;6.770;2022-11-15T05:42:17;11.20;99.90
21353;DHT22;10834;52.268;6.770;2022-11-15T05:45:06;11.30;99.90
21353;DHT22;10834;52.268;6.770;2022-11-15T05:47:53;11.20;99.90
21353;DHT22;10834;52.268;6.770;2022-11-15T05:50:42;11.30;99.90
21353;DHT22;10834;52.268;6.770;2022-11-15T05:53:29;11.30;99.90
21353;DHT22;10834;52.268;6.770;2022-11-15T05:56:16;11.30;99.90
21353;DHT22;10834;52.268;6.770;2022-11-15T05:59:03;11.30;99.90
21353;DHT22;10834;52.268;6.770;2022-11-15T06:01:49;11.30;99.90
21353;DHT22;10834;52.268;6.770;2022-11-15T06:04:36;11.30;99.90
21353;DHT22;10834;52.268;6.770;2022-11-15T06:07:22;11.30;99.90
21353;DHT22;10834;52.268;6.770;2022-11-15T06:10:08;11.40;99.90
21353;DHT22;10834;52.268;6.770;2022-11-15T06:13:02;11.40;99.90
21353;DHT22;10834;52.268;6.770;2022-11-15T06:15:48;11.30;99.90
21353;DHT22;10834;52.268;6.770;2022-11-15T06:18:35;11.40;99.90
21353;DHT22;10834;52.268;6.770;2022-11-15T06:21:21;11.30;99.90
21353;DHT22;10834;52.268;6.770;2022-11-15T06:24:07;11.40;99.90
21353;DHT22;10834;52.268;6.770;2022-11-15T06:26:53;11.30;99.90
21353;DHT22;10834;52.268;6.770;2022-11-15T06:29:39;11.40;99.90
21353;DHT22;10834;52.268;6.770;2022-11-15T06:32:26;11.40;99.90
21353;DHT22;10834;52.268;6.770;2022-11-15T06:35:12;11.40;99.90
21353;DHT22;10834;52.268;6.770;2022-11-15T06:38:09;11.30;99.90
21353;DHT22;10834;52.268;6.770;2022-11-15T06:41:00;11.30;99.90
21353;DHT22;10834;52.268;6.770;2022-11-15T06:43:46;11.40;99.90
21353;DHT22;10834;52.268;6.770;2022-11-15T06:46:32;11.30;99.90
21353;DHT22;10834;52.268;6.770;2022-11-15T06:49:18;11.40;99.90
21353;DHT22;10834;52.268;6.770;2022-11-15T06:52:04;11.40;99.90
21353;DHT22;10834;52.268;6.770;2022-11-15T06:54:50;11.30;99.90
21353;DHT22;10834;52.268;6.770;2022-11-15T06:57:37;11.30;99.90
21353;DHT22;10834;52.268;6.770;2022-11-15T07:00:23;11.30;99.90
21353;DHT22;10834;52.268;6.770;2022-11-15T07:03:09;11.40;99.90
21353;DHT22;10834;52.268;6.770;2022-11-15T07:05:57;11.30;99.90
21353;DHT22;10834;52.268;6.770;2022-11-15T07:08:43;11.30;99.90
21353;DHT22;10834;52.268;6.770;2022-11-15T07:11:29;11.40;99.90
21353;DHT22;10834;52.268;6.770;2022-11-15T07:14:15;11.40;99.90
21353;DHT22;10834;52.268;6.770;2022-11-15T07:17:04;11.40;99.90
21353;DHT22;10834;52.268;6.770;2022-11-15T07:19:50;11.40;99.90
21353;DHT22;10834;52.268;6.770;2022-11-15T07:22:36;11.40;99.90
21353;DHT22;10834;52.268;6.770;2022-11-15T07:25:23;11.40;99.90
21353;DHT22;10834;52.268;6.770;2022-11-15T07:28:08;11.40;99.90
21353;DHT22;10834;52.268;6.770;2022-11-15T07:30:55;11.40;99.90
21353;DHT22;10834;52.268;6.770;2022-11-15T07:33:41;11.40;99.90
21353;DHT22;10834;52.268;6.770;2022-11-15T07:36:27;11.40;99.90
21353;DHT22;10834;52.268;6.770;2022-11-15T07:39:13;11.40;99.90
21353;DHT22;10834;52.268;6.770;2022-11-15T07:42:00;11.40;99.90
21353;DHT22;10834;52.268;6.770;2022-11-15T07:45:05;11.40;99.90
21353;DHT22;10834;52.268;6.770;2022-11-15T07:47:51;11.40;99.90
21353;DHT22;10834;52.268;6.770;2022-11-15T07:50:41;11.40;99.90
21353;DHT22;10834;52.268;6.770;2022-11-15T07:53:27;11.40;99.90
21353;DHT22;10834;52.268;6.770;2022-11-15T07:56:14;11.40;99.90
21353;DHT22;10834;52.268;6.770;2022-11-15T07:59:00;11.50;99.90
21353;DHT22;10834;52.268;6.770;2022-11-15T08:01:46;11.50;99.90
21353;DHT22;10834;52.268;6.770;2022-11-15T08:04:32;11.50;99.90
21353;DHT22;10834;52.268;6.770;2022-11-15T08:07:18;11.50;99.90
21353;DHT22;10834;52.268;6.770;2022-11-15T08:10:05;11.60;99.90
21353;DHT22;10834;52.268;6.770;2022-11-15T08:12:58;11.60;99.90
21353;DHT22;10834;52.268;6.770;2022-11-15T08:15:44;11.70;99.90
21353;DHT22;10834;52.268;6.770;2022-11-15T08:18:30;11.70;99.90
21353;DHT22;10834;52.268;6.770;2022-11-15T08:21:19;11.80;99.90
21353;DHT22;10834;52.268;6.770;2022-11-15T08:24:05;11.80;99.90
21353;DHT22;10834;52.268;6.770;2022-11-15T08:26:51;11.80;99.90
21353;DHT22;10834;52.268;6.770;2022-11-15T08:29:37;11.80;99.90
21353;DHT22;10834;52.268;6.770;2022-11-15T08:32:23;11.80;99.90
21353;DHT22;10834;52.268;6.770;2022-11-15T08:35:10;11.80;99.90
21353;DHT22;10834;52.268;6.770;2022-11-15T08:37:56;11.70;99.90
21353;DHT22;10834;52.268;6.770;2022-11-15T08:40:42;11.70;99.90
21353;DHT22;10834;52.268;6.770;2022-11-15T08:43:28;11.70;99.90
21353;DHT22;10834;52.268;6.770;2022-11-15T08:46:14;11.80;99.90
21353;DHT22;10834;52.268;6.770;2022-11-15T08:49:00;11.80;99.90
21353;DHT22;10834;52.268;6.770;2022-11-15T08:51:46;11.80;99.90
21353;DHT22;10834;52.268;6.770;2022-11-15T08:54:32;11.90;99.90
21353;DHT22;10834;52.268;6.770;2022-11-15T08:57:18;12.00;99.90
21353;DHT22;10834;52.268;6.770;2022-11-15T09:00:05;12.00;99.90
21353;DHT22;10834;52.268;6.770;2022-11-15T09:02:51;12.00;99.90
21353;DHT22;10834;52.268;6.770;2022-11-15T09:05:37;12.00;99.90
21353;DHT22;10834;52.268;6.770;2022-11-15T09:08:24;12.00;99.90
21353;DHT22;10834;52.268;6.770;2022-11-15T09:11:11;12.10;99.90
21353;DHT22;10834;52.268;6.770;2022-11-15T09:13:58;12.10;99.90
21353;DHT22;10834;52.268;6.770;2022-11-15T09:16:44;12.10;99.90
21353;DHT22;10834;52.268;6.770;2022-11-15T09:19:30;12.10;99.90
21353;DHT22;10834;52.268;6.770;2022-11-15T09:22:16;12.10;99.90
21353;DHT22;10834;52.268;6.770;2022-11-15T09:25:03;12.10;99.90
21353;DHT22;10834;52.268;6.770;2022-11-15T09:27:49;12.10;99.90
21353;DHT22;10834;52.268;6.770;2022-11-15T09:30:35;12.10;99.90
21353;DHT22;10834;52.268;6.770;2022-11-15T09:33:21;12.00;99.90
21353;DHT22;10834;52.268;6.770;2022-11-15T09:36:08;12.00;99.90
21353;DHT22;10834;52.268;6.770;2022-11-15T09:38:54;12.00;99.90
21353;DHT22;10834;52.268;6.770;2022-11-15T09:45:10;12.20;99.90
21353;DHT22;10834;52.268;6.770;2022-11-15T09:51:03;12.40;99.90
21353;DHT22;10834;52.268;6.770;2022-11-15T09:56:44;12.50;99.90
21353;DHT22;10834;52.268;6.770;2022-11-15T09:59:46;12.70;99.90
21353;DHT22;10834;52.268;6.770;2022-11-15T10:05:47;13.00;99.90
21353;DHT22;10834;52.268;6.770;2022-11-15T10:08:45;13.00;99.90
21353;DHT22;10834;52.268;6.770;2022-11-15T10:11:35;12.90;99.90
21353;DHT22;10834;52.268;6.770;2022-11-15T10:14:26;12.90;99.90
21353;DHT22;10834;52.268;6.770;2022-11-15T10:20:58;12.80;99.90
21353;DHT22;10834;52.268;6.770;2022-11-15T10:23:44;12.80;99.90
21353;DHT22;10834;52.268;6.770;2022-11-15T10:26:30;12.90;99.90
21353;DHT22;10834;52.268;6.770;2022-11-15T10:29:20;13.00;99.90
21353;DHT22;10834;52.268;6.770;2022-11-15T10:32:07;12.90;99.90
21353;DHT22;10834;52.268;6.770;2022-11-15T10:34:53;12.90;99.90
21353;DHT22;10834;52.268;6.770;2022-11-15T10:37:39;13.00;99.90
21353;DHT22;10834;52.268;6.770;2022-11-15T10:40:25;13.10;99.90
21353;DHT22;10834;52.268;6.770;2022-11-15T10:43:17;13.30;99.90
21353;DHT22;10834;52.268;6.770;2022-11-15T10:46:19;13.50;99.90
21353;DHT22;10834;52.268;6.770;2022-11-15T10:49:13;13.60;99.90
21353;DHT22;10834;52.268;6.770;2022-11-15T10:52:17;13.50;99.90
21353;DHT22;10834;52.268;6.770;2022-11-15T10:58:21;13.30;99.90
21353;DHT22;10834;52.268;6.770;2022-11-15T11:04:10;13.30;99.90
21353;DHT22;10834;52.268;6.770;2022-11-15T11:06:58;13.30;99.90
21353;DHT22;10834;52.268;6.770;2022-11-15T11:09:44;13.30;99.90
21353;DHT22;10834;52.268;6.770;2022-11-15T11:12:32;13.40;99.90
21353;DHT22;10834;52.268;6.770;2022-11-15T11:15:19;13.40;99.90
21353;DHT22;10834;52.268;6.770;2022-11-15T11:18:24;13.50;99.90
21353;DHT22;10834;52.268;6.770;2022-11-15T11:21:39;13.50;99.90
21353;DHT22;10834;52.268;6.770;2022-11-15T11:37:22;13.70;99.90
21353;DHT22;10834;52.268;6.770;2022-11-15T11:47:03;13.80;99.90
21353;DHT22;10834;52.268;6.770;2022-11-15T11:50:18;13.90;99.90
21353;DHT22;10834;52.268;6.770;2022-11-15T11:53:35;14.00;99.90
21353;DHT22;10834;52.268;6.770;2022-11-15T11:56:27;13.90;99.90
21353;DHT22;10834;52.268;6.770;2022-11-15T11:59:50;13.90;99.90
21353;DHT22;10834;52.268;6.770;2022-11-15T12:02:41;13.90;99.90
21353;DHT22;10834;52.268;6.770;2022-11-15T12:05:47;13.80;99.90
21353;DHT22;10834;52.268;6.770;2022-11-15T12:09:51;13.80;99.90
21353;DHT22;10834;52.268;6.770;2022-11-15T12:12:09;13.80;99.90
21353;DHT22;10834;52.268;6.770;2022-11-15T12:15:24;13.80;99.90
21353;DHT22;10834;52.268;6.770;2022-11-15T12:18:14;13.90;99.90
21353;DHT22;10834;52.268;6.770;2022-11-15T12:21:07;13.90;99.90
21353;DHT22;10834;52.268;6.770;2022-11-15T12:23:59;13.90;99.90
21353;DHT22;10834;52.268;6.770;2022-11-15T12:27:00;13.90;99.90
21353;DHT22;10834;52.268;6.770;2022-11-15T12:29:54;13.90;99.90
21353;DHT22;10834;52.268;6.770;2022-11-15T12:33:01;13.90;99.90
21353;DHT22;10834;52.268;6.770;2022-11-15T12:36:01;13.90;99.90
21353;DHT22;10834;52.268;6.770;2022-11-15T12:39:03;14.00;99.90
21353;DHT22;10834;52.268;6.770;2022-11-15T12:47:27;14.00;99.90
21353;DHT22;10834;52.268;6.770;2022-11-15T12:50:13;14.00;99.90
21353;DHT22;10834;52.268;6.770;2022-11-15T12:53:30;14.00;99.90
21353;DHT22;10834;52.268;6.770;2022-11-15T12:56:20;13.90;99.90
21353;DHT22;10834;52.268;6.770;2022-11-15T12:59:06;13.90;99.90
21353;DHT22;10834;52.268;6.770;2022-11-15T13:01:57;13.80;99.90
21353;DHT22;10834;52.268;6.770;2022-11-15T13:04:43;13.80;99.90
21353;DHT22;10834;52.268;6.770;2022-11-15T13:10:31;13.80;99.90
21353;DHT22;10834;52.268;6.770;2022-11-15T13:13:43;13.70;99.90
21353;DHT22;10834;52.268;6.770;2022-11-15T13:16:30;13.70;99.90
21353;DHT22;10834;52.268;6.770;2022-11-15T13:19:19;13.60;99.90
21353;DHT22;10834;52.268;6.770;2022-11-15T13:22:11;13.50;99.90
21353;DHT22;10834;52.268;6.770;2022-11-15T13:28:44;13.50;99.90
21353;DHT22;10834;52.268;6.770;2022-11-15T13:31:41;13.40;99.90
21353;DHT22;10834;52.268;6.770;2022-11-15T13:34:30;13.40;99.90
21353;DHT22;10834;52.268;6.770;2022-11-15T13:40:28;13.30;99.90
21353;DHT22;10834;52.268;6.770;2022-11-15T13:43:36;13.20;99.90
21353;DHT22;10834;52.268;6.770;2022-11-15T13:46:26;13.20;99.90
21353;DHT22;10834;52.268;6.770;2022-11-15T13:49:13;13.10;99.90
21353;DHT22;10834;52.268;6.770;2022-11-15T13:52:00;13.00;99.90
21353;DHT22;10834;52.268;6.770;2022-11-15T13:54:58;13.00;99.90
21353;DHT22;10834;52.268;6.770;2022-11-15T13:57:49;13.00;99.90
21353;DHT22;10834;52.268;6.770;2022-11-15T14:00:40;12.90;99.90
21353;DHT22;10834;52.268;6.770;2022-11-15T14:03:31;12.90;99.90
21353;DHT22;10834;52.268;6.770;2022-11-15T14:06:20;12.90;99.90
21353;DHT22;10834;52.268;6.770;2022-11-15T14:11:56;12.80;99.90
21353;DHT22;10834;52.268;6.770;2022-11-15T14:14:46;12.80;99.90
21353;DHT22;10834;52.268;6.770;2022-11-15T14:17:37;12.80;99.90
21353;DHT22;10834;52.268;6.770;2022-11-15T14:20:32;12.70;99.90
21353;DHT22;10834;52.268;6.770;2022-11-15T14:23:27;12.70;99.90
21353;DHT22;10834;52.268;6.770;2022-11-15T14:29:26;12.70;99.90
21353;DHT22;10834;52.268;6.770;2022-11-15T14:32:19;12.60;99.90
21353;DHT22;10834;52.268;6.770;2022-11-15T14:35:14;12.60;99.90
21353;DHT22;10834;52.268;6.770;2022-11-15T14:38:00;12.60;99.90
21353;DHT22;10834;52.268;6.770;2022-11-15T14:40:46;12.50;99.90
21353;DHT22;10834;52.268;6.770;2022-11-15T14:43:32;12.50;99.90
21353;DHT22;10834;52.268;6.770;2022-11-15T14:46:19;12.50;99.90
21353;DHT22;10834;52.268;6.770;2022-11-15T14:49:05;12.40;99.90
21353;DHT22;10834;52.268;6.770;2022-11-15T14:51:51;12.40;99.90
21353;DHT22;10834;52.268;6.770;2022-11-15T14:54:37;12.50;99.90
21353;DHT22;10834;52.268;6.770;2022-11-15T14:57:23;12.50;99.90
21353;DHT22;10834;52.268;6.770;2022-11-15T15:00:10;12.40;99.90
21353;DHT22;10834;52.268;6.770;2022-11-15T15:02:56;12.40;99.90
21353;DHT22;10834;52.268;6.770;2022-11-15T15:05:43;12.30;99.90
21353;DHT22;10834;52.268;6.770;2022-11-15T15:08:29;12.30;99.90
21353;DHT22;10834;52.268;6.770;2022-11-15T15:11:21;12.20;99.90
21353;DHT22;10834;52.268;6.770;2022-11-15T15:14:08;12.20;99.90
21353;DHT22;10834;52.268;6.770;2022-11-15T15:16:54;12.20;99.90
21353;DHT22;10834;52.268;6.770;2022-11-15T15:19:41;12.20;99.90
21353;DHT22;10834;52.268;6.770;2022-11-15T15:22:29;12.20;99.90
21353;DHT22;10834;52.268;6.770;2022-11-15T15:25:28;12.20;99.90
21353;DHT22;10834;52.268;6.770;2022-11-15T15:28:15;12.20;99.90
21353;DHT22;10834;52.268;6.770;2022-11-15T15:31:02;12.20;99.90
21353;DHT22;10834;52.268;6.770;2022-11-15T15:33:48;12.10;99.90
21353;DHT22;10834;52.268;6.770;2022-11-15T15:36:34;12.10;99.90
21353;DHT22;10834;52.268;6.770;2022-11-15T15:39:20;12.10;99.90
21353;DHT22;10834;52.268;6.770;2022-11-15T15:42:06;12.00;99.90
21353;DHT22;10834;52.268;6.770;2022-11-15T15:44:52;12.00;99.90
21353;DHT22;10834;52.268;6.770;2022-11-15T15:47:38;12.00;99.90
21353;DHT22;10834;52.268;6.770;2022-11-15T15:50:29;12.00;99.90
21353;DHT22;10834;52.268;6.770;2022-11-15T15:53:16;11.90;99.90
21353;DHT22;10834;52.268;6.770;2022-11-15T15:56:03;12.00;99.90
21353;DHT22;10834;52.268;6.770;2022-11-15T15:58:49;12.00;99.90
21353;DHT22;10834;52.268;6.770;2022-11-15T16:01:37;12.00;99.90
21353;DHT22;10834;52.268;6.770;2022-11-15T16:04:24;12.00;99.90
21353;DHT22;10834;52.268;6.770;2022-11-15T16:07:21;12.00;99.90
21353;DHT22;10834;52.268;6.770;2022-11-15T16:10:22;12.10;99.90
21353;DHT22;10834;52.268;6.770;2022-11-15T16:13:08;12.00;99.90
21353;DHT22;10834;52.268;6.770;2022-11-15T16:15:54;12.00;99.90
21353;DHT22;10834;52.268;6.770;2022-11-15T16:18:41;12.00;99.90
21353;DHT22;10834;52.268;6.770;2022-11-15T16:21:27;12.00;99.90
21353;DHT22;10834;52.268;6.770;2022-11-15T16:24:13;12.00;99.90
21353;DHT22;10834;52.268;6.770;2022-11-15T16:27:00;12.00;99.90
21353;DHT22;10834;52.268;6.770;2022-11-15T16:29:46;12.00;99.90
21353;DHT22;10834;52.268;6.770;2022-11-15T16:32:32;12.10;99.90
21353;DHT22;10834;52.268;6.770;2022-11-15T16:35:18;12.10;99.90
21353;DHT22;10834;52.268;6.770;2022-11-15T16:38:04;12.10;99.90
21353;DHT22;10834;52.268;6.770;2022-11-15T16:40:51;12.10;99.90
21353;DHT22;10834;52.268;6.770;2022-11-15T16:43:37;12.20;99.90
21353;DHT22;10834;52.268;6.770;2022-11-15T16:46:26;12.20;99.90
21353;DHT22;10834;52.268;6.770;2022-11-15T16:49:14;12.30;99.90
21353;DHT22;10834;52.268;6.770;2022-11-15T16:52:00;12.30;99.90
21353;DHT22;10834;52.268;6.770;2022-11-15T16:54:46;12.30;99.90
21353;DHT22;10834;52.268;6.770;2022-11-15T16:57:32;12.30;99.90
21353;DHT22;10834;52.268;6.770;2022-11-15T17:00:19;12.30;99.90
21353;DHT22;10834;52.268;6.770;2022-11-15T17:03:05;12.30;99.90
21353;DHT22;10834;52.268;6.770;2022-11-15T17:05:52;12.30;99.90
21353;DHT22;10834;52.268;6.770;2022-11-15T17:08:38;12.30;99.90
21353;DHT22;10834;52.268;6.770;2022-11-15T17:11:24;12.30;99.90
21353;DHT22;10834;52.268;6.770;2022-11-15T17:14:10;12.30;99.90
21353;DHT22;10834;52.268;6.770;2022-11-15T17:16:57;12.30;99.90
21353;DHT22;10834;52.268;6.770;2022-11-15T17:19:43;12.30;99.90
21353;DHT22;10834;52.268;6.770;2022-11-15T17:22:29;12.30;99.90
21353;DHT22;10834;52.268;6.770;2022-11-15T17:25:15;12.30;99.90
21353;DHT22;10834;52.268;6.770;2022-11-15T17:28:01;12.30;99.90
21353;DHT22;10834;52.268;6.770;2022-11-15T17:30:47;12.30;99.90
21353;DHT22;10834;52.268;6.770;2022-11-15T17:33:34;12.30;99.90
21353;DHT22;10834;52.268;6.770;2022-11-15T17:36:20;12.30;99.90
21353;DHT22;10834;52.268;6.770;2022-11-15T17:39:06;12.40;99.90
21353;DHT22;10834;52.268;6.770;2022-11-15T17:41:52;12.30;99.90
21353;DHT22;10834;52.268;6.770;2022-11-15T17:44:38;12.40;99.90
21353;DHT22;10834;52.268;6.770;2022-11-15T17:47:24;12.40;99.90
21353;DHT22;10834;52.268;6.770;2022-11-15T17:50:10;12.40;99.90
21353;DHT22;10834;52.268;6.770;2022-11-15T17:52:58;12.40;99.90
21353;DHT22;10834;52.268;6.770;2022-11-15T17:55:44;12.40;99.90
21353;DHT22;10834;52.268;6.770;2022-11-15T17:58:31;12.40;99.90
21353;DHT22;10834;52.268;6.770;2022-11-15T18:04:07;12.40;99.90
21353;DHT22;10834;52.268;6.770;2022-11-15T18:06:54;12.40;99.90
21353;DHT22;10834;52.268;6.770;2022-11-15T18:09:41;12.40;99.90
21353;DHT22;10834;52.268;6.770;2022-11-15T18:12:28;12.40;99.90
21353;DHT22;10834;52.268;6.770;2022-11-15T18:15:14;12.40;99.90
21353;DHT22;10834;52.268;6.770;2022-11-15T18:18:00;12.40;99.90
21353;DHT22;10834;52.268;6.770;2022-11-15T18:20:46;12.40;99.90
21353;DHT22;10834;52.268;6.770;2022-11-15T18:23:33;12.40;99.90
21353;DHT22;10834;52.268;6.770;2022-11-15T18:26:20;12.40;99.90
21353;DHT22;10834;52.268;6.770;2022-11-15T18:29:06;12.50;99.90
21353;DHT22;10834;52.268;6.770;2022-11-15T18:31:52;12.50;99.90
21353;DHT22;10834;52.268;6.770;2022-11-15T18:34:42;12.50;99.90
21353;DHT22;10834;52.268;6.770;2022-11-15T18:37:28;12.50;99.90
21353;DHT22;10834;52.268;6.770;2022-11-15T18:40:15;12.50;99.90
21353;DHT22;10834;52.268;6.770;2022-11-15T18:43:01;12.50;99.90
21353;DHT22;10834;52.268;6.770;2022-11-15T18:45:47;12.50;99.90
21353;DHT22;10834;52.268;6.770;2022-11-15T18:48:34;12.50;99.90
21353;DHT22;10834;52.268;6.770;2022-11-15T18:51:26;12.50;99.90
21353;DHT22;10834;52.268;6.770;2022-11-15T18:54:15;12.50;99.90
21353;DHT22;10834;52.268;6.770;2022-11-15T18:57:02;12.50;99.90
21353;DHT22;10834;52.268;6.770;2022-11-15T18:59:48;12.50;99.90
21353;DHT22;10834;52.268;6.770;2022-11-15T19:02:34;12.50;99.90
21353;DHT22;10834;52.268;6.770;2022-11-15T19:05:20;12.50;99.90
21353;DHT22;10834;52.268;6.770;2022-11-15T19:08:06;12.50;99.90
21353;DHT22;10834;52.268;6.770;2022-11-15T19:10:52;12.50;99.90
21353;DHT22;10834;52.268;6.770;2022-11-15T19:13:38;12.50;99.90
21353;DHT22;10834;52.268;6.770;2022-11-15T19:16:26;12.50;99.90
21353;DHT22;10834;52.268;6.770;2022-11-15T19:19:14;12.50;99.90
21353;DHT22;10834;52.268;6.770;2022-11-15T19:22:01;12.50;99.90
21353;DHT22;10834;52.268;6.770;2022-11-15T19:24:47;12.50;99.90
21353;DHT22;10834;52.268;6.770;2022-11-15T19:27:33;12.50;99.90